createdAt,value
2022-10-26T00:01:21.783Z,10.93
2022-10-26T00:03:48.833Z,10.60
2022-10-26T00:06:18.314Z,10.60
2022-10-26T00:08:45.828Z,12.47
2022-10-26T00:11:13.462Z,10.20
2022-10-26T00:13:40.867Z,14.97
2022-10-26T00:16:09.892Z,12.23
2022-10-26T00:18:36.945Z,11.10
2022-10-26T00:21:05.096Z,9.70
2022-10-26T00:23:32.443Z,9.47
2022-10-26T00:25:59.596Z,12.90
2022-10-26T00:28:26.721Z,9.13
2022-10-26T00:30:53.719Z,10.40
2022-10-26T00:33:20.565Z,14.80
2022-10-26T00:35:49.262Z,9.90
2022-10-26T00:38:15.985Z,13.10
2022-10-26T00:40:44.337Z,10.87
2022-10-26T00:43:34.596Z,10.47
2022-10-26T00:46:03.090Z,13.37
2022-10-26T00:48:36.025Z,13.03
2022-10-26T00:51:09.000Z,14.03
2022-10-26T00:53:36.142Z,12.17
2022-10-26T00:56:03.592Z,15.47
2022-10-26T00:58:31.364Z,13.67
2022-10-26T01:00:58.163Z,13.70
2022-10-26T01:03:25.504Z,14.53
2022-10-26T01:05:56.737Z,17.43
2022-10-26T01:08:24.120Z,18.20
2022-10-26T01:10:51.673Z,14.73
2022-10-26T01:13:18.807Z,14.60
2022-10-26T01:16:07.687Z,14.20
2022-10-26T01:19:06.712Z,20.07
2022-10-26T01:21:42.506Z,19.23
2022-10-26T01:24:30.978Z,20.37
2022-10-26T01:27:02.400Z,17.47
2022-10-26T01:30:11.132Z,17.67
2022-10-26T01:33:00.231Z,18.70
2022-10-26T01:35:33.206Z,18.47
2022-10-26T01:38:05.585Z,15.47
2022-10-26T01:40:46.829Z,19.57
2022-10-26T01:43:15.525Z,14.97
2022-10-26T01:45:46.700Z,15.60
2022-10-26T01:48:17.749Z,19.20
2022-10-26T01:50:49.790Z,15.73
2022-10-26T01:53:17.142Z,15.73
2022-10-26T01:55:54.664Z,15.50
2022-10-26T01:58:42.093Z,22.43
2022-10-26T02:01:29.841Z,17.93
2022-10-26T02:04:20.856Z,17.73
2022-10-26T02:07:02.348Z,19.30
2022-10-26T02:09:43.199Z,17.50
2022-10-26T02:12:21.335Z,19.53
2022-10-26T02:14:51.011Z,23.37
2022-10-26T02:17:29.065Z,16.47
2022-10-26T02:20:05.876Z,19.50
2022-10-26T02:22:38.003Z,19.77
2022-10-26T02:25:09.881Z,18.53
2022-10-26T02:27:42.545Z,17.37
2022-10-26T02:30:11.164Z,16.43
2022-10-26T02:32:42.568Z,17.07
2022-10-26T02:35:09.961Z,17.37
2022-10-26T02:37:38.589Z,21.13
2022-10-26T02:40:11.438Z,17.37
2022-10-26T02:42:42.325Z,22.57
2022-10-26T02:45:12.810Z,19.50
2022-10-26T02:47:39.581Z,19.67
2022-10-26T02:50:06.903Z,16.70
2022-10-26T02:52:50.570Z,21.10
2022-10-26T02:55:27.837Z,17.33
2022-10-26T02:58:00.330Z,18.37
2022-10-26T03:00:27.240Z,19.00
2022-10-26T03:02:57.481Z,17.20
2022-10-26T03:05:32.692Z,18.83
2022-10-26T03:08:00.688Z,17.83
2022-10-26T03:10:27.638Z,17.23
2022-10-26T03:12:54.723Z,15.90
2022-10-26T03:15:21.789Z,27.30
2022-10-26T03:17:48.759Z,15.70
2022-10-26T03:20:15.767Z,19.53
2022-10-26T03:22:42.546Z,20.37
2022-10-26T03:27:41.886Z,17.03
2022-10-26T03:30:09.059Z,16.57
2022-10-26T03:32:35.868Z,15.27
2022-10-26T03:35:02.620Z,16.17
2022-10-26T03:37:29.344Z,18.33
2022-10-26T03:39:56.067Z,20.30
2022-10-26T03:42:22.792Z,16.53
2022-10-26T03:44:49.548Z,15.63
2022-10-26T03:47:16.293Z,17.10
2022-10-26T03:49:43.064Z,20.47
2022-10-26T03:52:09.888Z,17.87
2022-10-26T03:54:36.682Z,19.77
2022-10-26T03:57:03.470Z,17.83
2022-10-26T03:59:30.245Z,16.43
2022-10-26T04:01:58.012Z,21.03
2022-10-26T04:04:26.202Z,34.37
2022-10-26T04:06:53.076Z,17.73
2022-10-26T04:09:19.819Z,18.63
2022-10-26T04:11:46.540Z,17.73
2022-10-26T04:14:13.322Z,19.00
2022-10-26T04:16:40.128Z,20.77
2022-10-26T04:19:06.907Z,18.87
2022-10-26T04:21:35.429Z,15.63
2022-10-26T04:24:02.551Z,19.07
2022-10-26T04:26:29.342Z,18.03
2022-10-26T04:28:56.132Z,16.43
2022-10-26T04:31:22.944Z,17.10
2022-10-26T04:33:49.841Z,16.03
2022-10-26T04:36:16.587Z,18.17
2022-10-26T04:38:43.319Z,20.50
2022-10-26T04:41:10.275Z,27.20
2022-10-26T04:43:36.999Z,22.20
2022-10-26T04:46:03.713Z,19.13
2022-10-26T04:48:30.427Z,18.60
2022-10-26T04:51:01.077Z,17.20
2022-10-26T04:53:28.315Z,18.87
2022-10-26T04:55:59.314Z,21.70
2022-10-26T04:58:26.585Z,21.17
2022-10-26T05:00:53.672Z,25.13
2022-10-26T05:03:20.773Z,22.00
2022-10-26T05:05:50.671Z,20.83
2022-10-26T05:08:17.469Z,26.20
2022-10-26T05:10:49.038Z,18.83
2022-10-26T05:13:15.855Z,28.07
2022-10-26T05:15:42.646Z,20.80
2022-10-26T05:18:09.722Z,27.07
2022-10-26T05:20:37.422Z,27.23
2022-10-26T05:23:06.430Z,22.37
2022-10-26T05:25:36.622Z,22.57
2022-10-26T05:28:09.609Z,22.30
2022-10-26T05:30:36.548Z,21.97
2022-10-26T05:33:03.456Z,25.60
2022-10-26T05:35:30.940Z,22.90
2022-10-26T05:37:58.407Z,22.97
2022-10-26T05:40:25.679Z,22.67
2022-10-26T05:42:52.967Z,23.27
2022-10-26T05:45:20.193Z,21.20
2022-10-26T05:47:47.363Z,20.93
2022-10-26T05:50:14.466Z,25.70
2022-10-26T05:52:42.174Z,23.53
2022-10-26T05:55:10.263Z,24.93
2022-10-26T05:57:38.145Z,20.63
2022-10-26T06:00:15.068Z,25.30
2022-10-26T06:03:00.392Z,24.20
2022-10-26T06:05:31.074Z,24.93
2022-10-26T06:07:58.253Z,24.83
2022-10-26T06:10:25.451Z,25.83
2022-10-26T06:12:52.815Z,23.27
2022-10-26T06:15:21.740Z,23.83
2022-10-26T06:17:53.944Z,26.00
2022-10-26T06:20:54.171Z,27.17
2022-10-26T06:23:45.336Z,24.03
2022-10-26T06:26:18.318Z,27.80
2022-10-26T06:29:01.489Z,28.03
2022-10-26T06:31:28.345Z,23.20
2022-10-26T06:33:59.856Z,20.43
2022-10-26T06:36:29.117Z,19.53
2022-10-26T06:39:01.522Z,19.87
2022-10-26T06:41:30.878Z,19.50
2022-10-26T06:43:57.872Z,19.57
2022-10-26T06:46:40.866Z,18.33
2022-10-26T06:49:24.308Z,22.10
2022-10-26T06:52:17.496Z,18.37
2022-10-26T06:54:52.911Z,20.33
2022-10-26T06:57:21.823Z,17.60
2022-10-26T06:59:58.636Z,18.80
2022-10-26T07:02:25.566Z,21.17
2022-10-26T07:04:52.498Z,14.77
2022-10-26T07:07:21.924Z,16.80
2022-10-26T07:09:49.387Z,16.47
2022-10-26T07:12:16.332Z,11.60
2022-10-26T07:14:43.147Z,13.10
2022-10-26T07:17:10.333Z,18.20
2022-10-26T07:19:37.067Z,13.50
2022-10-26T07:22:04.072Z,18.47
2022-10-26T07:24:31.268Z,15.27
2022-10-26T07:26:58.776Z,13.17
2022-10-26T07:29:27.004Z,15.13
2022-10-26T07:34:25.872Z,16.43
2022-10-26T07:36:52.765Z,16.33
2022-10-26T07:39:20.100Z,13.57
2022-10-26T07:41:47.262Z,15.27
2022-10-26T07:44:14.094Z,15.60
2022-10-26T07:46:41.164Z,15.23
2022-10-26T07:49:08.162Z,16.73
2022-10-26T07:51:35.001Z,13.03
2022-10-26T07:54:01.747Z,14.50
2022-10-26T07:56:29.011Z,13.67
2022-10-26T07:58:56.200Z,16.87
2022-10-26T08:01:23.059Z,18.37
2022-10-26T08:03:54.192Z,15.67
2022-10-26T08:06:22.059Z,13.40
2022-10-26T08:08:49.165Z,12.57
2022-10-26T08:11:16.960Z,14.93
2022-10-26T08:13:43.833Z,14.43
2022-10-26T08:16:10.793Z,9.70
2022-10-26T08:18:37.998Z,12.00
2022-10-26T08:21:11.297Z,12.27
2022-10-26T08:23:39.581Z,14.17
2022-10-26T08:26:06.913Z,17.90
2022-10-26T08:28:33.848Z,10.73
2022-10-26T08:31:00.616Z,13.83
2022-10-26T08:33:27.361Z,12.43
2022-10-26T08:35:59.269Z,11.87
2022-10-26T08:38:26.447Z,11.33
2022-10-26T08:40:54.068Z,9.80
2022-10-26T08:43:35.133Z,10.77
2022-10-26T08:46:11.711Z,13.77
2022-10-26T08:49:02.763Z,8.83
2022-10-26T08:51:37.529Z,8.93
2022-10-26T08:54:21.575Z,12.43
2022-10-26T08:56:57.605Z,9.90
2022-10-26T08:59:26.695Z,9.00
2022-10-26T09:01:54.482Z,12.13
2022-10-26T09:04:28.114Z,10.80
2022-10-26T09:07:01.022Z,6.40
2022-10-26T09:09:57.297Z,10.50
2022-10-26T09:12:28.451Z,10.77
2022-10-26T09:15:13.455Z,7.30
2022-10-26T09:17:52.156Z,6.27
2022-10-26T09:20:40.695Z,6.80
2022-10-26T09:23:45.190Z,8.35
2022-10-26T09:26:24.055Z,6.78
2022-10-26T09:28:51.326Z,8.75
2022-10-26T09:31:18.324Z,8.90
2022-10-26T09:33:45.052Z,3.53
2022-10-26T09:36:20.821Z,5.63
2022-10-26T09:38:51.322Z,7.30
2022-10-26T09:41:27.061Z,7.03
2022-10-26T09:44:24.346Z,7.78
2022-10-26T09:47:23.082Z,4.35
2022-10-26T09:49:54.680Z,5.72
2022-10-26T09:52:21.594Z,10.93
2022-10-26T09:54:48.340Z,8.70
2022-10-26T09:57:18.657Z,6.72
2022-10-26T09:59:55.854Z,3.70
2022-10-26T10:02:47.237Z,7.70
2022-10-26T10:08:22.108Z,4.97
2022-10-26T10:10:59.585Z,5.07
2022-10-26T10:13:32.114Z,5.57
2022-10-26T10:16:05.203Z,4.38
2022-10-26T10:18:33.198Z,4.40
2022-10-26T10:21:00.693Z,4.22
2022-10-26T10:23:33.660Z,5.20
2022-10-26T10:26:12.546Z,2.97
2022-10-26T10:28:42.746Z,6.28
2022-10-26T10:31:27.834Z,3.95
2022-10-26T10:33:55.368Z,7.18
2022-10-26T10:36:25.468Z,3.90
2022-10-26T10:38:53.880Z,2.85
2022-10-26T10:41:32.712Z,3.47
2022-10-26T10:44:16.835Z,3.70
2022-10-26T10:46:43.721Z,7.45
2022-10-26T10:49:28.824Z,2.45
2022-10-26T10:51:56.411Z,3.03
2022-10-26T10:54:27.833Z,4.60
2022-10-26T10:57:17.259Z,4.05
2022-10-26T10:59:58.573Z,3.45
2022-10-26T11:02:49.463Z,4.47
2022-10-26T11:05:28.285Z,5.85
2022-10-26T11:08:28.150Z,2.92
2022-10-26T11:11:03.084Z,6.00
2022-10-26T11:13:38.252Z,5.00
2022-10-26T11:16:12.002Z,3.88
2022-10-26T11:18:46.742Z,3.47
2022-10-26T11:21:23.499Z,4.13
2022-10-26T11:24:16.585Z,8.77
2022-10-26T11:26:49.842Z,5.88
2022-10-26T11:29:23.782Z,4.72
2022-10-26T11:32:01.621Z,5.25
2022-10-26T11:34:38.925Z,3.20
2022-10-26T11:37:17.047Z,3.17
2022-10-26T11:40:02.145Z,2.58
2022-10-26T11:42:38.792Z,3.30
2022-10-26T11:45:25.806Z,3.33
2022-10-26T11:48:04.342Z,6.90
2022-10-26T11:50:36.363Z,4.70
2022-10-26T11:53:21.459Z,4.00
2022-10-26T11:55:53.028Z,2.17
2022-10-26T11:58:24.457Z,5.45
2022-10-26T12:01:00.466Z,3.78
2022-10-26T12:03:31.747Z,3.97
2022-10-26T12:05:58.489Z,4.32
2022-10-26T12:08:33.667Z,3.42
2022-10-26T12:11:12.526Z,8.43
2022-10-26T12:13:51.130Z,4.03
2022-10-26T12:16:40.609Z,3.33
2022-10-26T12:21:55.228Z,6.32
2022-10-26T12:24:27.921Z,3.33
2022-10-26T12:26:59.505Z,4.82
2022-10-26T12:29:38.660Z,2.92
2022-10-26T12:32:28.110Z,5.72
2022-10-26T12:34:55.007Z,7.40
2022-10-26T12:37:23.183Z,4.22
2022-10-26T12:39:50.013Z,3.75
2022-10-26T12:42:16.682Z,6.80
2022-10-26T12:44:45.520Z,4.07
2022-10-26T12:47:30.805Z,4.32
2022-10-26T12:50:06.531Z,5.20
2022-10-26T12:52:41.167Z,4.60
2022-10-26T12:55:29.278Z,5.95
2022-10-26T12:57:59.145Z,4.13
2022-10-26T13:00:27.985Z,6.78
2022-10-26T13:03:07.106Z,4.35
2022-10-26T13:05:39.705Z,5.82
2022-10-26T13:08:09.422Z,3.85
2022-10-26T13:10:38.414Z,4.43
2022-10-26T13:13:07.812Z,6.22
2022-10-26T13:15:40.879Z,4.70
2022-10-26T13:18:07.614Z,2.90
2022-10-26T13:20:37.795Z,5.97
2022-10-26T13:23:16.922Z,4.93
2022-10-26T13:26:12.896Z,4.43
2022-10-26T13:28:39.860Z,5.18
2022-10-26T13:31:31.626Z,3.53
2022-10-26T13:34:03.501Z,3.40
2022-10-26T13:37:04.536Z,8.43
2022-10-26T13:39:46.463Z,5.43
2022-10-26T13:42:20.168Z,10.48
2022-10-26T13:45:03.051Z,3.95
2022-10-26T13:47:48.755Z,9.55
2022-10-26T13:53:54.785Z,3.33
2022-10-26T13:56:21.583Z,5.07
2022-10-26T13:59:03.507Z,9.13
2022-10-26T14:01:30.996Z,6.65
2022-10-26T14:03:57.919Z,4.80
2022-10-26T14:06:49.889Z,3.63
2022-10-26T14:09:18.989Z,6.38
2022-10-26T14:12:00.731Z,4.47
2022-10-26T14:14:34.288Z,6.65
2022-10-26T14:17:02.619Z,6.00
2022-10-26T14:19:35.540Z,6.40
2022-10-26T14:22:03.034Z,4.65
2022-10-26T14:24:46.246Z,7.05
2022-10-26T14:27:19.323Z,5.75
2022-10-26T14:29:58.364Z,5.30
2022-10-26T14:32:33.910Z,7.15
2022-10-26T14:35:00.785Z,9.02
2022-10-26T14:37:56.684Z,4.90
2022-10-26T14:40:27.643Z,8.30
2022-10-26T14:43:02.662Z,8.80
2022-10-26T14:45:48.655Z,5.72
2022-10-26T14:48:23.582Z,9.10
2022-10-26T14:51:05.879Z,7.53
2022-10-26T14:53:40.828Z,5.05
2022-10-26T14:56:38.998Z,8.93
2022-10-26T14:59:22.067Z,6.40
2022-10-26T15:02:10.941Z,4.63
2022-10-26T15:04:40.624Z,5.38
2022-10-26T15:07:11.622Z,5.72
2022-10-26T15:09:53.640Z,6.35
2022-10-26T15:12:31.645Z,5.30
2022-10-26T15:15:19.547Z,5.30
2022-10-26T15:17:55.828Z,3.97
2022-10-26T15:20:25.107Z,4.22
2022-10-26T15:22:54.575Z,4.85
2022-10-26T15:25:25.712Z,9.30
2022-10-26T15:27:53.045Z,7.05
2022-10-26T15:30:25.923Z,4.47
2022-10-26T15:32:54.529Z,5.45
2022-10-26T15:35:26.322Z,6.13
2022-10-26T15:37:55.371Z,8.68
2022-10-26T15:42:59.326Z,7.38
2022-10-26T15:45:47.977Z,6.25
2022-10-26T15:48:34.328Z,5.90
2022-10-26T15:51:01.137Z,7.45
2022-10-26T15:53:28.222Z,9.43
2022-10-26T15:55:58.013Z,10.57
2022-10-26T15:58:25.408Z,9.05
2022-10-26T16:00:52.269Z,8.85
2022-10-26T16:03:22.578Z,9.73
2022-10-26T16:05:55.652Z,14.30
2022-10-26T16:08:22.468Z,8.60
2022-10-26T16:10:51.089Z,10.30
2022-10-26T16:13:17.985Z,8.23
2022-10-26T16:15:45.285Z,10.05
2022-10-26T16:18:12.187Z,13.50
2022-10-26T16:20:39.033Z,6.93
2022-10-26T16:23:08.630Z,12.23
2022-10-26T16:25:41.584Z,9.15
2022-10-26T16:28:15.489Z,8.02
2022-10-26T16:30:42.787Z,9.73
2022-10-26T16:33:09.587Z,7.15
2022-10-26T16:35:36.332Z,9.00
2022-10-26T16:38:03.142Z,7.68
2022-10-26T16:40:29.903Z,8.23
2022-10-26T16:42:56.733Z,12.48
2022-10-26T16:45:23.545Z,8.63
2022-10-26T16:47:50.593Z,8.60
2022-10-26T16:50:20.518Z,6.50
2022-10-26T16:52:47.243Z,8.48
2022-10-26T16:55:14.279Z,9.35
2022-10-26T16:57:41.211Z,9.20
2022-10-26T17:00:08.427Z,11.38
2022-10-26T17:02:35.365Z,7.93
2022-10-26T17:05:05.914Z,10.57
2022-10-26T17:07:34.814Z,10.85
2022-10-26T17:10:01.717Z,7.25
2022-10-26T17:12:29.459Z,7.78
2022-10-26T17:14:58.598Z,6.95
2022-10-26T17:17:25.430Z,8.73
2022-10-26T17:19:52.211Z,6.57
2022-10-26T17:22:18.990Z,7.90
2022-10-26T17:24:45.784Z,11.35
2022-10-26T17:27:12.565Z,8.52
2022-10-26T17:29:39.349Z,9.02
2022-10-26T17:32:06.137Z,9.77
2022-10-26T17:34:32.968Z,8.43
2022-10-26T17:36:59.740Z,7.72
2022-10-26T17:39:26.666Z,9.25
2022-10-26T17:41:53.386Z,9.30
2022-10-26T17:44:20.264Z,7.78
2022-10-26T17:46:47.019Z,9.68
2022-10-26T17:49:13.790Z,7.88
2022-10-26T17:51:40.563Z,8.13
2022-10-26T17:54:07.639Z,7.07
2022-10-26T17:56:34.623Z,9.60
2022-10-26T17:59:08.986Z,6.80
2022-10-26T18:01:35.927Z,6.70
2022-10-26T18:04:02.815Z,5.93
2022-10-26T18:06:29.635Z,8.35
2022-10-26T18:08:57.732Z,11.18
2022-10-26T18:11:27.287Z,8.93
2022-10-26T18:13:55.834Z,8.25
2022-10-26T18:16:24.473Z,7.97
2022-10-26T18:19:04.415Z,5.90
2022-10-26T18:21:38.733Z,7.47
2022-10-26T18:24:09.225Z,7.20
2022-10-26T18:26:36.198Z,9.23
2022-10-26T18:29:04.551Z,9.32
2022-10-26T18:31:32.725Z,8.33
2022-10-26T18:34:02.163Z,5.85
2022-10-26T18:36:29.786Z,10.97
2022-10-26T18:38:56.629Z,7.57
2022-10-26T18:41:24.426Z,9.23
2022-10-26T18:43:54.113Z,6.67
2022-10-26T18:46:27.691Z,6.93
2022-10-26T18:48:55.660Z,6.55
2022-10-26T18:51:29.034Z,7.83
2022-10-26T18:53:56.492Z,6.57
2022-10-26T18:56:24.966Z,5.97
2022-10-26T18:58:55.752Z,7.57
2022-10-26T19:01:30.349Z,8.23
2022-10-26T19:04:05.753Z,7.43
2022-10-26T19:06:38.298Z,10.70
2022-10-26T19:09:06.758Z,6.47
2022-10-26T19:11:34.126Z,13.00
2022-10-26T19:14:00.912Z,8.00
2022-10-26T19:16:45.067Z,7.47
2022-10-26T19:19:14.191Z,14.30
2022-10-26T19:21:41.064Z,14.07
2022-10-26T19:24:12.973Z,9.43
2022-10-26T19:26:43.545Z,11.80
2022-10-26T19:29:16.097Z,9.32
2022-10-26T19:31:45.824Z,9.65
2022-10-26T19:34:14.627Z,9.57
2022-10-26T19:36:44.944Z,10.13
2022-10-26T19:39:13.663Z,9.90
2022-10-26T19:41:40.855Z,8.55
2022-10-26T19:44:07.962Z,15.05
2022-10-26T19:46:34.900Z,9.20
2022-10-26T19:49:02.458Z,11.40
2022-10-26T19:51:31.255Z,8.70
2022-10-26T19:54:03.175Z,10.57
2022-10-26T19:56:31.313Z,6.87
2022-10-26T19:58:58.275Z,13.15
2022-10-26T20:01:25.255Z,11.48
2022-10-26T20:03:52.470Z,13.85
2022-10-26T20:06:19.726Z,8.68
2022-10-26T20:08:48.410Z,7.30
2022-10-26T20:11:17.109Z,9.20
2022-10-26T20:13:45.874Z,7.45
2022-10-26T20:16:13.599Z,6.22
2022-10-26T20:18:44.089Z,8.05
2022-10-26T20:21:14.910Z,8.77
2022-10-26T20:23:42.744Z,7.50
2022-10-26T20:26:11.904Z,9.32
2022-10-26T20:28:48.073Z,7.97
2022-10-26T20:31:15.067Z,10.32
2022-10-26T20:33:42.080Z,9.95
2022-10-26T20:36:09.018Z,8.80
2022-10-26T20:38:36.070Z,6.95
2022-10-26T20:41:06.289Z,7.77
2022-10-26T20:43:38.982Z,9.13
2022-10-26T20:46:32.399Z,8.35
2022-10-26T20:48:59.441Z,5.63
2022-10-26T20:51:47.611Z,9.68
2022-10-26T20:54:30.165Z,9.25
2022-10-26T20:57:00.600Z,6.65
2022-10-26T20:59:39.746Z,7.95
2022-10-26T21:02:09.699Z,9.13
2022-10-26T21:04:36.552Z,6.60
2022-10-26T21:07:03.323Z,8.35
2022-10-26T21:09:31.773Z,10.50
2022-10-26T21:12:02.256Z,15.70
2022-10-26T21:14:29.058Z,10.03
2022-10-26T21:16:56.024Z,12.40
2022-10-26T21:19:22.838Z,7.90
2022-10-26T21:21:49.574Z,11.05
2022-10-26T21:24:16.350Z,10.00
2022-10-26T21:26:43.075Z,7.78
2022-10-26T21:29:10.982Z,9.27
2022-10-26T21:31:37.966Z,15.02
2022-10-26T21:34:04.789Z,9.65
2022-10-26T21:36:31.507Z,9.33
2022-10-26T21:38:58.365Z,13.15
2022-10-26T21:44:03.728Z,13.47
2022-10-26T21:46:38.302Z,8.38
2022-10-26T21:49:05.855Z,12.30
2022-10-26T21:51:32.978Z,11.73
2022-10-26T21:53:59.789Z,8.53
2022-10-26T21:56:26.587Z,8.57
2022-10-26T21:58:53.316Z,12.70
2022-10-26T22:01:22.243Z,9.23
2022-10-26T22:03:49.739Z,10.30
2022-10-26T22:06:21.183Z,9.45
2022-10-26T22:08:48.243Z,12.90
2022-10-26T22:11:18.815Z,10.00
2022-10-26T22:13:47.364Z,8.90
2022-10-26T22:16:22.918Z,11.50
2022-10-26T22:18:51.209Z,9.67
2022-10-26T22:21:19.695Z,6.80
2022-10-26T22:23:46.909Z,11.93
2022-10-26T22:26:20.126Z,8.73
2022-10-26T22:28:48.642Z,9.33
2022-10-26T22:34:07.406Z,9.23
2022-10-26T22:36:35.405Z,9.40
2022-10-26T22:39:02.377Z,9.00
2022-10-26T22:41:29.211Z,8.23
2022-10-26T22:43:55.943Z,7.27
2022-10-26T22:46:25.085Z,9.77
2022-10-26T22:48:57.005Z,11.00
2022-10-26T22:51:25.207Z,9.37
2022-10-26T22:53:53.895Z,10.60
2022-10-26T22:56:21.624Z,8.67
2022-10-26T22:58:48.525Z,12.13
2022-10-26T23:01:17.968Z,9.67
2022-10-26T23:03:44.997Z,9.60
2022-10-26T23:06:15.027Z,8.77
2022-10-26T23:08:42.399Z,8.47
2022-10-26T23:11:12.315Z,8.03
2022-10-26T23:13:39.220Z,8.93
2022-10-26T23:16:07.830Z,8.80
2022-10-26T23:18:34.853Z,8.27
2022-10-26T23:21:02.422Z,10.70
2022-10-26T23:23:29.332Z,7.63
2022-10-26T23:26:03.285Z,9.90
2022-10-26T23:28:30.738Z,6.00
2022-10-26T23:30:57.504Z,8.77
2022-10-26T23:33:24.306Z,10.20
2022-10-26T23:35:51.774Z,7.47
2022-10-26T23:38:18.827Z,13.23
2022-10-26T23:40:52.453Z,11.57
2022-10-26T23:43:19.778Z,8.30
2022-10-26T23:45:47.060Z,10.33
2022-10-26T23:48:14.489Z,9.83
2022-10-26T23:50:43.340Z,9.53
2022-10-26T23:53:11.581Z,9.10
2022-10-26T23:55:38.385Z,11.00
2022-10-26T23:58:05.812Z,7.60
